sensor_id;sensor_type;location;lat;lon;timestamp;pressure;altitude;pressure_sealevel;temperature;humidity
70323;BME280;57735;56.264;43.898;2022-09-28T00:01:18;100165.16;;;8.58;84.01
70323;BME280;57735;56.264;43.898;2022-09-28T00:03:51;100151.88;;;8.58;84.08
70323;BME280;57735;56.264;43.898;2022-09-28T00:06:25;100159.84;;;8.58;84.02
70323;BME280;57735;56.264;43.898;2022-09-28T00:08:57;100155.34;;;8.59;83.96
70323;BME280;57735;56.264;43.898;2022-09-28T00:11:30;100147.53;;;8.57;84.17
70323;BME280;57735;56.264;43.898;2022-09-28T00:14:01;100151.88;;;8.58;84.16
70323;BME280;57735;56.264;43.898;2022-09-28T00:16:36;100142.22;;;8.57;84.38
70323;BME280;57735;56.264;43.898;2022-09-28T00:19:07;100136.75;;;8.59;84.52
70323;BME280;57735;56.264;43.898;2022-09-28T00:21:40;100139.56;;;8.57;84.57
70323;BME280;57735;56.264;43.898;2022-09-28T00:24:13;100137.59;;;8.59;84.35
70323;BME280;57735;56.264;43.898;2022-09-28T00:26:52;100132.28;;;8.59;84.59
70323;BME280;57735;56.264;43.898;2022-09-28T00:29:31;100124.31;;;8.59;84.68
70323;BME280;57735;56.264;43.898;2022-09-28T00:32:09;100115.38;;;8.60;84.80
70323;BME280;57735;56.264;43.898;2022-09-28T00:34:44;100114.38;;;8.61;84.76
70323;BME280;57735;56.264;43.898;2022-09-28T00:37:18;100112.56;;;8.62;84.80
70323;BME280;57735;56.264;43.898;2022-09-28T00:39:52;100104.72;;;8.60;84.95
70323;BME280;57735;56.264;43.898;2022-09-28T00:42:24;100105.44;;;8.62;84.90
70323;BME280;57735;56.264;43.898;2022-09-28T00:44:56;100102.63;;;8.64;84.91
70323;BME280;57735;56.264;43.898;2022-09-28T00:50:28;100099.53;;;8.68;84.86
70323;BME280;57735;56.264;43.898;2022-09-28T00:53:08;100093.38;;;8.68;84.77
70323;BME280;57735;56.264;43.898;2022-09-28T00:55:44;100077.28;;;8.69;84.76
70323;BME280;57735;56.264;43.898;2022-09-28T00:58:26;100090.25;;;8.72;84.77
70323;BME280;57735;56.264;43.898;2022-09-28T01:00:59;100092.91;;;8.72;84.88
70323;BME280;57735;56.264;43.898;2022-09-28T01:03:31;100075.97;;;8.73;84.66
70323;BME280;57735;56.264;43.898;2022-09-28T01:06:03;100070.38;;;8.77;84.56
70323;BME280;57735;56.264;43.898;2022-09-28T01:08:36;100059.75;;;8.77;84.62
70323;BME280;57735;56.264;43.898;2022-09-28T01:11:09;100066.88;;;8.76;84.69
70323;BME280;57735;56.264;43.898;2022-09-28T01:13:40;100067.72;;;8.77;84.73
70323;BME280;57735;56.264;43.898;2022-09-28T01:19:32;100054.97;;;8.80;84.73
70323;BME280;57735;56.264;43.898;2022-09-28T01:24:57;100053.31;;;8.79;84.72
70323;BME280;57735;56.264;43.898;2022-09-28T01:27:42;100039.88;;;8.81;84.61
70323;BME280;57735;56.264;43.898;2022-09-28T01:30:16;100056.78;;;8.80;84.69
70323;BME280;57735;56.264;43.898;2022-09-28T01:33:02;100038.88;;;8.82;84.45
70323;BME280;57735;56.264;43.898;2022-09-28T01:35:39;100045.03;;;8.82;84.49
70323;BME280;57735;56.264;43.898;2022-09-28T01:38:24;100050.19;;;8.84;84.58
70323;BME280;57735;56.264;43.898;2022-09-28T01:40:58;100038.59;;;8.85;84.45
70323;BME280;57735;56.264;43.898;2022-09-28T01:43:34;100030.47;;;8.86;84.36
70323;BME280;57735;56.264;43.898;2022-09-28T01:48:50;100017.03;;;8.88;84.52
70323;BME280;57735;56.264;43.898;2022-09-28T01:54:13;100016.84;;;8.89;84.52
70323;BME280;57735;56.264;43.898;2022-09-28T01:56:51;100012.50;;;8.88;84.67
70323;BME280;57735;56.264;43.898;2022-09-28T01:59:27;100006.22;;;8.89;84.47
70323;BME280;57735;56.264;43.898;2022-09-28T02:02:15;100006.22;;;8.89;84.55
70323;BME280;57735;56.264;43.898;2022-09-28T02:04:54;100004.38;;;8.90;84.55
70323;BME280;57735;56.264;43.898;2022-09-28T02:10:27;99995.28;;;8.92;84.57
70323;BME280;57735;56.264;43.898;2022-09-28T02:13:19;99994.44;;;8.92;84.60
70323;BME280;57735;56.264;43.898;2022-09-28T02:15:57;99990.81;;;8.93;84.54
70323;BME280;57735;56.264;43.898;2022-09-28T02:18:33;99984.66;;;8.92;84.60
70323;BME280;57735;56.264;43.898;2022-09-28T02:21:16;99982.81;;;8.93;84.61
70323;BME280;57735;56.264;43.898;2022-09-28T02:24:25;99979.47;;;8.91;84.95
70323;BME280;57735;56.264;43.898;2022-09-28T02:26:55;99978.50;;;8.92;84.84
70323;BME280;57735;56.264;43.898;2022-09-28T02:29:27;99969.69;;;8.91;84.53
70323;BME280;57735;56.264;43.898;2022-09-28T02:31:57;99967.88;;;8.92;84.50
70323;BME280;57735;56.264;43.898;2022-09-28T02:34:28;99962.41;;;8.93;84.69
70323;BME280;57735;56.264;43.898;2022-09-28T02:37:00;99964.22;;;8.93;84.69
70323;BME280;57735;56.264;43.898;2022-09-28T02:39:36;99966.88;;;8.93;84.96
70323;BME280;57735;56.264;43.898;2022-09-28T02:50:48;99957.38;;;8.90;85.13
70323;BME280;57735;56.264;43.898;2022-09-28T02:53:52;99951.22;;;8.90;84.89
70323;BME280;57735;56.264;43.898;2022-09-28T03:05:31;99951.22;;;8.90;84.94
70323;BME280;57735;56.264;43.898;2022-09-28T03:08:13;99943.25;;;8.90;85.08
70323;BME280;57735;56.264;43.898;2022-09-28T03:10:58;99951.22;;;8.90;85.03
70323;BME280;57735;56.264;43.898;2022-09-28T03:13:32;99945.25;;;8.88;85.04
70323;BME280;57735;56.264;43.898;2022-09-28T03:16:14;99947.72;;;8.89;84.90
70323;BME280;57735;56.264;43.898;2022-09-28T03:18:46;99940.59;;;8.90;84.89
70323;BME280;57735;56.264;43.898;2022-09-28T03:21:17;99927.31;;;8.90;85.11
70323;BME280;57735;56.264;43.898;2022-09-28T03:23:48;99942.41;;;8.89;85.19
70323;BME280;57735;56.264;43.898;2022-09-28T03:26:19;99928.97;;;8.91;85.07
70323;BME280;57735;56.264;43.898;2022-09-28T03:28:50;99936.94;;;8.91;84.79
70323;BME280;57735;56.264;43.898;2022-09-28T03:31:21;99947.59;;;8.91;85.00
70323;BME280;57735;56.264;43.898;2022-09-28T03:33:55;99939.47;;;8.92;84.86
70323;BME280;57735;56.264;43.898;2022-09-28T03:36:25;99948.41;;;8.91;85.21
70323;BME280;57735;56.264;43.898;2022-09-28T03:38:56;99950.09;;;8.92;85.15
70323;BME280;57735;56.264;43.898;2022-09-28T03:41:28;99937.63;;;8.93;84.99
70323;BME280;57735;56.264;43.898;2022-09-28T03:43:59;99938.47;;;8.93;85.19
70323;BME280;57735;56.264;43.898;2022-09-28T03:46:30;99934.97;;;8.93;85.05
70323;BME280;57735;56.264;43.898;2022-09-28T03:49:01;99931.47;;;8.92;85.14
70323;BME280;57735;56.264;43.898;2022-09-28T03:51:32;99934.16;;;8.92;84.97
70323;BME280;57735;56.264;43.898;2022-09-28T03:54:03;99926.00;;;8.94;84.96
70323;BME280;57735;56.264;43.898;2022-09-28T03:56:34;99934.97;;;8.93;84.81
70323;BME280;57735;56.264;43.898;2022-09-28T03:59:05;99924.34;;;8.93;84.68
70323;BME280;57735;56.264;43.898;2022-09-28T04:01:36;99934.16;;;8.92;84.85
70323;BME280;57735;56.264;43.898;2022-09-28T04:04:11;99927.47;;;8.88;85.06
70323;BME280;57735;56.264;43.898;2022-09-28T04:06:42;99924.66;;;8.90;85.18
70323;BME280;57735;56.264;43.898;2022-09-28T04:09:15;99923.66;;;8.91;84.90
70323;BME280;57735;56.264;43.898;2022-09-28T04:11:46;99919.34;;;8.90;84.78
70323;BME280;57735;56.264;43.898;2022-09-28T04:14:17;99926.31;;;8.91;84.79
70323;BME280;57735;56.264;43.898;2022-09-28T04:16:48;99915.69;;;8.91;84.90
70323;BME280;57735;56.264;43.898;2022-09-28T04:19:21;99904.06;;;8.92;85.05
70323;BME280;57735;56.264;43.898;2022-09-28T04:21:52;99909.22;;;8.93;85.04
70323;BME280;57735;56.264;43.898;2022-09-28T04:24:23;99901.09;;;8.95;84.88
70323;BME280;57735;56.264;43.898;2022-09-28T04:26:56;99900.28;;;8.94;84.90
70323;BME280;57735;56.264;43.898;2022-09-28T04:29:47;99901.09;;;8.95;84.65
70323;BME280;57735;56.264;43.898;2022-09-28T04:32:18;99901.78;;;8.97;84.54
70323;BME280;57735;56.264;43.898;2022-09-28T04:34:49;99895.47;;;8.98;84.85
70323;BME280;57735;56.264;43.898;2022-09-28T04:37:20;99889.34;;;8.97;85.05
70323;BME280;57735;56.264;43.898;2022-09-28T04:39:51;99893.81;;;8.97;85.01
70323;BME280;57735;56.264;43.898;2022-09-28T04:42:22;99887.81;;;8.95;85.06
70323;BME280;57735;56.264;43.898;2022-09-28T04:44:53;99889.94;;;8.91;85.11
70323;BME280;57735;56.264;43.898;2022-09-28T04:47:26;99880.28;;;8.90;85.20
70323;BME280;57735;56.264;43.898;2022-09-28T04:49:58;99876.81;;;8.90;85.39
70323;BME280;57735;56.264;43.898;2022-09-28T04:52:29;99878.31;;;8.92;85.20
70323;BME280;57735;56.264;43.898;2022-09-28T04:55:00;99875.81;;;8.91;85.16
70323;BME280;57735;56.264;43.898;2022-09-28T04:57:33;99871.19;;;8.93;85.24
70323;BME280;57735;56.264;43.898;2022-09-28T05:00:05;99863.38;;;8.91;85.06
70323;BME280;57735;56.264;43.898;2022-09-28T05:02:36;99861.53;;;8.92;84.83
70323;BME280;57735;56.264;43.898;2022-09-28T05:05:07;99864.19;;;8.92;84.94
70323;BME280;57735;56.264;43.898;2022-09-28T05:07:38;99860.56;;;8.93;84.82
70323;BME280;57735;56.264;43.898;2022-09-28T05:10:10;99855.22;;;8.93;84.71
70323;BME280;57735;56.264;43.898;2022-09-28T05:12:41;99851.59;;;8.94;84.76
70323;BME280;57735;56.264;43.898;2022-09-28T05:15:12;99852.94;;;8.98;84.73
70323;BME280;57735;56.264;43.898;2022-09-28T05:17:43;99853.78;;;8.98;84.81
70323;BME280;57735;56.264;43.898;2022-09-28T05:20:14;99853.63;;;9.00;84.54
70323;BME280;57735;56.264;43.898;2022-09-28T05:22:44;99836.69;;;9.01;84.45
70323;BME280;57735;56.264;43.898;2022-09-28T05:25:18;99840.19;;;9.01;84.24
70323;BME280;57735;56.264;43.898;2022-09-28T05:27:55;99843.00;;;9.00;84.16
70323;BME280;57735;56.264;43.898;2022-09-28T05:30:26;99820.91;;;8.99;84.08
70323;BME280;57735;56.264;43.898;2022-09-28T05:32:57;99825.53;;;8.97;84.22
70323;BME280;57735;56.264;43.898;2022-09-28T05:35:28;99812.09;;;8.99;84.36
70323;BME280;57735;56.264;43.898;2022-09-28T05:38:03;99820.22;;;8.97;84.29
70323;BME280;57735;56.264;43.898;2022-09-28T05:40:34;99814.91;;;8.97;83.87
70323;BME280;57735;56.264;43.898;2022-09-28T05:43:05;99814.91;;;8.97;83.75
70323;BME280;57735;56.264;43.898;2022-09-28T05:45:36;99811.25;;;8.98;83.67
70323;BME280;57735;56.264;43.898;2022-09-28T05:48:07;99803.97;;;9.00;83.78
70323;BME280;57735;56.264;43.898;2022-09-28T05:50:38;99799.31;;;9.02;83.83
70323;BME280;57735;56.264;43.898;2022-09-28T05:53:09;99812.63;;;9.02;83.51
70323;BME280;57735;56.264;43.898;2022-09-28T05:55:40;99801.31;;;9.00;83.56
70323;BME280;57735;56.264;43.898;2022-09-28T05:58:13;99796.00;;;9.00;83.52
70323;BME280;57735;56.264;43.898;2022-09-28T06:00:44;99798.78;;;8.99;83.86
70323;BME280;57735;56.264;43.898;2022-09-28T06:03:15;99789.47;;;8.95;83.84
70323;BME280;57735;56.264;43.898;2022-09-28T06:05:46;99788.31;;;8.97;83.95
70323;BME280;57735;56.264;43.898;2022-09-28T06:08:20;99778.53;;;8.98;83.88
70323;BME280;57735;56.264;43.898;2022-09-28T06:10:51;99778.22;;;9.01;83.84
70323;BME280;57735;56.264;43.898;2022-09-28T06:13:21;99776.22;;;9.03;83.64
70323;BME280;57735;56.264;43.898;2022-09-28T06:15:52;99775.56;;;9.01;83.36
70323;BME280;57735;56.264;43.898;2022-09-28T06:18:23;99774.72;;;9.00;83.37
70323;BME280;57735;56.264;43.898;2022-09-28T06:20:54;99764.09;;;9.00;83.57
70323;BME280;57735;56.264;43.898;2022-09-28T06:23:25;99763.09;;;9.01;83.38
70323;BME280;57735;56.264;43.898;2022-09-28T06:26:00;99765.59;;;9.03;82.85
70323;BME280;57735;56.264;43.898;2022-09-28T06:28:31;99754.81;;;9.04;82.88
70323;BME280;57735;56.264;43.898;2022-09-28T06:31:04;99767.75;;;9.07;83.15
70323;BME280;57735;56.264;43.898;2022-09-28T06:33:37;99765.25;;;9.06;83.05
70323;BME280;57735;56.264;43.898;2022-09-28T06:36:08;99762.78;;;9.04;82.94
70323;BME280;57735;56.264;43.898;2022-09-28T06:38:40;99770.38;;;8.99;82.60
70323;BME280;57735;56.264;43.898;2022-09-28T06:41:11;99755.59;;;8.97;82.85
70323;BME280;57735;56.264;43.898;2022-09-28T06:43:46;99747.63;;;8.97;82.96
70323;BME280;57735;56.264;43.898;2022-09-28T06:46:16;99759.22;;;8.96;83.10
70323;BME280;57735;56.264;43.898;2022-09-28T06:48:48;99767.06;;;8.97;83.10
70323;BME280;57735;56.264;43.898;2022-09-28T06:51:21;99764.56;;;8.96;83.00
70323;BME280;57735;56.264;43.898;2022-09-28T06:53:52;99757.25;;;8.98;82.98
70323;BME280;57735;56.264;43.898;2022-09-28T06:56:23;99743.97;;;8.98;82.90
70323;BME280;57735;56.264;43.898;2022-09-28T06:58:54;99753.91;;;8.96;82.61
70323;BME280;57735;56.264;43.898;2022-09-28T07:01:25;99757.25;;;8.98;82.74
70323;BME280;57735;56.264;43.898;2022-09-28T07:03:56;99753.28;;;9.02;82.95
70323;BME280;57735;56.264;43.898;2022-09-28T07:06:27;99737.53;;;9.08;82.63
70323;BME280;57735;56.264;43.898;2022-09-28T07:08:58;99754.81;;;9.13;82.38
70323;BME280;57735;56.264;43.898;2022-09-28T07:11:38;99757.00;;;9.17;81.92
70323;BME280;57735;56.264;43.898;2022-09-28T07:14:10;99752.69;;;9.16;81.93
70323;BME280;57735;56.264;43.898;2022-09-28T07:16:41;99750.81;;;9.08;82.20
70323;BME280;57735;56.264;43.898;2022-09-28T07:19:12;99737.19;;;9.03;82.41
70323;BME280;57735;56.264;43.898;2022-09-28T07:21:46;99743.66;;;9.01;82.33
70323;BME280;57735;56.264;43.898;2022-09-28T07:24:17;99753.75;;;8.97;82.14
70323;BME280;57735;56.264;43.898;2022-09-28T07:26:48;99760.22;;;8.95;82.61
70323;BME280;57735;56.264;43.898;2022-09-28T07:29:21;99753.91;;;8.96;82.33
70323;BME280;57735;56.264;43.898;2022-09-28T07:31:52;99741.47;;;8.96;82.60
70323;BME280;57735;56.264;43.898;2022-09-28T07:34:23;99744.97;;;8.97;82.62
70323;BME280;57735;56.264;43.898;2022-09-28T07:36:54;99735.69;;;9.01;82.48
70323;BME280;57735;56.264;43.898;2022-09-28T07:39:29;99736.66;;;9.00;82.34
70323;BME280;57735;56.264;43.898;2022-09-28T07:42:00;99727.53;;;9.02;82.52
70323;BME280;57735;56.264;43.898;2022-09-28T07:44:30;99732.84;;;9.02;82.34
70323;BME280;57735;56.264;43.898;2022-09-28T07:47:01;99733.53;;;9.04;82.48
70323;BME280;57735;56.264;43.898;2022-09-28T07:49:32;99731.50;;;8.98;82.01
70323;BME280;57735;56.264;43.898;2022-09-28T07:52:03;99723.00;;;8.95;82.36
70323;BME280;57735;56.264;43.898;2022-09-28T07:54:33;99731.28;;;8.92;82.39
70323;BME280;57735;56.264;43.898;2022-09-28T07:57:05;99732.63;;;8.88;82.05
70323;BME280;57735;56.264;43.898;2022-09-28T07:59:36;99724.97;;;8.85;82.23
70323;BME280;57735;56.264;43.898;2022-09-28T08:02:08;99737.25;;;8.86;82.55
70323;BME280;57735;56.264;43.898;2022-09-28T08:04:39;99735.28;;;8.88;82.57
70323;BME280;57735;56.264;43.898;2022-09-28T08:07:11;99728.31;;;8.87;82.37
70323;BME280;57735;56.264;43.898;2022-09-28T08:09:43;99717.66;;;8.87;82.48
70323;BME280;57735;56.264;43.898;2022-09-28T08:12:14;99721.63;;;8.83;82.29
70323;BME280;57735;56.264;43.898;2022-09-28T08:14:48;99717.97;;;8.84;82.47
70323;BME280;57735;56.264;43.898;2022-09-28T08:17:22;99717.31;;;8.82;82.47
70323;BME280;57735;56.264;43.898;2022-09-28T08:19:56;99723.44;;;8.82;82.59
70323;BME280;57735;56.264;43.898;2022-09-28T08:22:45;99716.56;;;8.71;82.34
70323;BME280;57735;56.264;43.898;2022-09-28T08:25:16;99717.59;;;8.70;82.72
70323;BME280;57735;56.264;43.898;2022-09-28T08:27:47;99725.72;;;8.69;82.45
70323;BME280;57735;56.264;43.898;2022-09-28T08:30:19;99722.06;;;8.70;82.77
70323;BME280;57735;56.264;43.898;2022-09-28T08:32:49;99713.41;;;8.68;82.60
70323;BME280;57735;56.264;43.898;2022-09-28T08:35:23;99722.72;;;8.72;82.39
70323;BME280;57735;56.264;43.898;2022-09-28T08:37:55;99716.56;;;8.71;82.25
70323;BME280;57735;56.264;43.898;2022-09-28T08:40:25;99707.78;;;8.71;82.35
70323;BME280;57735;56.264;43.898;2022-09-28T08:43:01;99701.97;;;8.67;82.32
70323;BME280;57735;56.264;43.898;2022-09-28T08:45:34;99723.69;;;8.63;82.40
70323;BME280;57735;56.264;43.898;2022-09-28T08:48:20;99709.19;;;8.57;82.75
70323;BME280;57735;56.264;43.898;2022-09-28T08:51:23;99715.00;;;8.53;83.08
70323;BME280;57735;56.264;43.898;2022-09-28T08:54:08;99708.31;;;8.49;82.99
70323;BME280;57735;56.264;43.898;2022-09-28T08:59:23;99701.81;;;8.43;83.06
70323;BME280;57735;56.264;43.898;2022-09-28T09:02:00;99707.28;;;8.42;83.04
70323;BME280;57735;56.264;43.898;2022-09-28T09:04:33;99703.09;;;8.39;83.17
70323;BME280;57735;56.264;43.898;2022-09-28T09:10:56;99694.47;;;8.37;83.10
70323;BME280;57735;56.264;43.898;2022-09-28T09:20:04;99671.59;;;8.44;83.05
70323;BME280;57735;56.264;43.898;2022-09-28T09:22:20;99673.13;;;8.47;82.92
70323;BME280;57735;56.264;43.898;2022-09-28T09:30:30;99671.66;;;8.52;83.01
70323;BME280;57735;56.264;43.898;2022-09-28T09:47:15;99677.16;;;8.59;82.87
70323;BME280;57735;56.264;43.898;2022-09-28T09:52:30;99659.06;;;8.54;82.64
70323;BME280;57735;56.264;43.898;2022-09-28T09:55:23;99660.19;;;8.52;82.73
70323;BME280;57735;56.264;43.898;2022-09-28T09:57:59;99663.00;;;8.50;82.83
70323;BME280;57735;56.264;43.898;2022-09-28T10:00:36;99678.28;;;8.48;83.09
70323;BME280;57735;56.264;43.898;2022-09-28T10:03:21;99666.81;;;8.48;82.80
70323;BME280;57735;56.264;43.898;2022-09-28T10:06:26;99668.63;;;8.47;82.98
70323;BME280;57735;56.264;43.898;2022-09-28T10:09:05;99669.94;;;8.43;83.00
70323;BME280;57735;56.264;43.898;2022-09-28T10:11:41;99660.31;;;8.42;83.14
70323;BME280;57735;56.264;43.898;2022-09-28T10:14:15;99662.44;;;8.38;82.82
70323;BME280;57735;56.264;43.898;2022-09-28T10:16:49;99666.56;;;8.33;82.85
70323;BME280;57735;56.264;43.898;2022-09-28T10:19:28;99667.41;;;8.33;83.10
70323;BME280;57735;56.264;43.898;2022-09-28T10:22:03;99666.00;;;8.29;83.56
70323;BME280;57735;56.264;43.898;2022-09-28T10:24:38;99663.50;;;8.28;83.58
70323;BME280;57735;56.264;43.898;2022-09-28T10:27:23;99668.59;;;8.21;83.82
70323;BME280;57735;56.264;43.898;2022-09-28T10:30:03;99665.59;;;8.16;83.84
70323;BME280;57735;56.264;43.898;2022-09-28T10:32:47;99662.41;;;8.13;84.17
70323;BME280;57735;56.264;43.898;2022-09-28T10:35:28;99659.75;;;8.13;84.18
70323;BME280;57735;56.264;43.898;2022-09-28T10:38:16;99648.47;;;8.11;84.07
70323;BME280;57735;56.264;43.898;2022-09-28T10:40:53;99651.13;;;8.11;84.25
70323;BME280;57735;56.264;43.898;2022-09-28T10:43:33;99661.72;;;8.11;84.34
70323;BME280;57735;56.264;43.898;2022-09-28T10:46:19;99654.44;;;8.13;84.34
70323;BME280;57735;56.264;43.898;2022-09-28T10:49:11;99649.66;;;8.16;84.44
70323;BME280;57735;56.264;43.898;2022-09-28T10:51:47;99644.69;;;8.21;84.23
70323;BME280;57735;56.264;43.898;2022-09-28T10:54:27;99658.81;;;8.22;84.18
70323;BME280;57735;56.264;43.898;2022-09-28T10:56:59;99644.56;;;8.23;84.24
70323;BME280;57735;56.264;43.898;2022-09-28T11:02:28;99643.94;;;8.29;84.28
70323;BME280;57735;56.264;43.898;2022-09-28T11:05:02;99640.84;;;8.33;84.03
70323;BME280;57735;56.264;43.898;2022-09-28T11:07:44;99624.75;;;8.35;83.94
70323;BME280;57735;56.264;43.898;2022-09-28T11:10:27;99636.72;;;8.39;83.53
70323;BME280;57735;56.264;43.898;2022-09-28T11:13:01;99631.75;;;8.44;83.34
70323;BME280;57735;56.264;43.898;2022-09-28T11:15:32;99638.13;;;8.51;83.23
70323;BME280;57735;56.264;43.898;2022-09-28T11:21:15;99629.53;;;8.65;82.89
70323;BME280;57735;56.264;43.898;2022-09-28T11:24:05;99643.00;;;8.72;82.50
70323;BME280;57735;56.264;43.898;2022-09-28T11:26:39;99635.72;;;8.74;82.77
70323;BME280;57735;56.264;43.898;2022-09-28T11:29:36;99633.56;;;8.69;82.67
70323;BME280;57735;56.264;43.898;2022-09-28T11:32:11;99649.28;;;8.63;82.56
70323;BME280;57735;56.264;43.898;2022-09-28T11:34:48;99622.06;;;8.61;82.73
70323;BME280;57735;56.264;43.898;2022-09-28T11:37:48;99626.00;;;8.57;82.88
70323;BME280;57735;56.264;43.898;2022-09-28T11:45:39;99621.03;;;8.54;83.54
70323;BME280;57735;56.264;43.898;2022-09-28T11:48:22;99612.88;;;8.55;83.49
70323;BME280;57735;56.264;43.898;2022-09-28T11:51:14;99630.31;;;8.58;83.64
70323;BME280;57735;56.264;43.898;2022-09-28T11:53:56;99601.94;;;8.58;83.20
70323;BME280;57735;56.264;43.898;2022-09-28T11:56:44;99607.09;;;8.60;83.21
70323;BME280;57735;56.264;43.898;2022-09-28T11:59:30;99618.72;;;8.59;83.35
70323;BME280;57735;56.264;43.898;2022-09-28T12:02:20;99617.56;;;8.61;83.32
70323;BME280;57735;56.264;43.898;2022-09-28T12:07:33;99602.94;;;8.57;83.34
70323;BME280;57735;56.264;43.898;2022-09-28T12:10:27;99612.41;;;8.52;83.21
70323;BME280;57735;56.264;43.898;2022-09-28T12:13:07;99618.53;;;8.52;83.61
70323;BME280;57735;56.264;43.898;2022-09-28T12:15:48;99609.91;;;8.50;83.60
70323;BME280;57735;56.264;43.898;2022-09-28T12:18:26;99617.84;;;8.50;83.63
70323;BME280;57735;56.264;43.898;2022-09-28T12:23:47;99606.19;;;8.43;83.51
70323;BME280;57735;56.264;43.898;2022-09-28T12:26:30;99614.47;;;8.40;83.41
70323;BME280;57735;56.264;43.898;2022-09-28T12:29:13;99620.63;;;8.40;83.72
70323;BME280;57735;56.264;43.898;2022-09-28T12:34:33;99608.66;;;8.36;83.69
70323;BME280;57735;56.264;43.898;2022-09-28T12:37:20;99620.28;;;8.35;83.76
70323;BME280;57735;56.264;43.898;2022-09-28T12:40:10;99612.47;;;8.34;83.34
70323;BME280;57735;56.264;43.898;2022-09-28T12:48:51;99599.75;;;8.20;83.03
70323;BME280;57735;56.264;43.898;2022-09-28T12:54:10;99599.22;;;8.16;83.02
70323;BME280;57735;56.264;43.898;2022-09-28T13:00:03;99591.41;;;8.15;83.11
70323;BME280;57735;56.264;43.898;2022-09-28T13:03:03;99597.03;;;8.12;83.20
70323;BME280;57735;56.264;43.898;2022-09-28T13:22:47;99592.63;;;7.94;83.00
70323;BME280;57735;56.264;43.898;2022-09-28T13:25:17;99589.28;;;7.92;83.16
70323;BME280;57735;56.264;43.898;2022-09-28T13:27:54;99599.06;;;7.92;83.24
70323;BME280;57735;56.264;43.898;2022-09-28T13:30:26;99609.34;;;7.87;83.20
70323;BME280;57735;56.264;43.898;2022-09-28T13:32:59;99607.00;;;7.84;83.38
70323;BME280;57735;56.264;43.898;2022-09-28T13:35:30;99608.66;;;7.85;83.66
70323;BME280;57735;56.264;43.898;2022-09-28T13:49:22;99604.78;;;7.79;83.55
70323;BME280;57735;56.264;43.898;2022-09-28T13:52:06;99616.00;;;7.73;83.37
70323;BME280;57735;56.264;43.898;2022-09-28T13:57:47;99621.66;;;7.70;83.46
70323;BME280;57735;56.264;43.898;2022-09-28T14:06:30;99612.09;;;7.59;83.53
70323;BME280;57735;56.264;43.898;2022-09-28T14:12:01;99614.69;;;7.51;83.44
70323;BME280;57735;56.264;43.898;2022-09-28T14:14:50;99621.44;;;7.46;83.46
70323;BME280;57735;56.264;43.898;2022-09-28T14:17:34;99625.34;;;7.42;83.73
70323;BME280;57735;56.264;43.898;2022-09-28T14:20:14;99625.66;;;7.39;83.74
70323;BME280;57735;56.264;43.898;2022-09-28T14:29:01;99625.91;;;7.27;83.39
70323;BME280;57735;56.264;43.898;2022-09-28T14:31:40;99628.16;;;7.22;83.84
70323;BME280;57735;56.264;43.898;2022-09-28T14:34:46;99622.03;;;7.22;83.62
70323;BME280;57735;56.264;43.898;2022-09-28T14:37:26;99622.34;;;7.19;83.85
70323;BME280;57735;56.264;43.898;2022-09-28T14:40:19;99622.78;;;7.14;83.65
70323;BME280;57735;56.264;43.898;2022-09-28T14:51:59;99628.06;;;6.96;83.98
70323;BME280;57735;56.264;43.898;2022-09-28T14:54:39;99630.03;;;6.94;84.10
70323;BME280;57735;56.264;43.898;2022-09-28T14:57:19;99628.34;;;6.93;84.11
70323;BME280;57735;56.264;43.898;2022-09-28T14:59:51;99634.78;;;6.91;83.95
70323;BME280;57735;56.264;43.898;2022-09-28T15:02:31;99618.19;;;6.89;84.07
70323;BME280;57735;56.264;43.898;2022-09-28T15:10:30;99643.47;;;6.83;83.93
70323;BME280;57735;56.264;43.898;2022-09-28T15:13:03;99629.69;;;6.80;83.63
70323;BME280;57735;56.264;43.898;2022-09-28T15:15:39;99645.59;;;6.80;83.74
70323;BME280;57735;56.264;43.898;2022-09-28T15:20:58;99634.59;;;6.75;83.73
70323;BME280;57735;56.264;43.898;2022-09-28T15:26:01;99619.31;;;6.69;83.78
70323;BME280;57735;56.264;43.898;2022-09-28T15:28:34;99615.84;;;6.58;83.67
70323;BME280;57735;56.264;43.898;2022-09-28T15:31:05;99632.03;;;6.55;83.84
70323;BME280;57735;56.264;43.898;2022-09-28T15:33:39;99612.66;;;6.55;83.87
70323;BME280;57735;56.264;43.898;2022-09-28T15:36:34;99611.84;;;6.54;83.99
70323;BME280;57735;56.264;43.898;2022-09-28T15:39:18;99625.06;;;6.54;83.98
70323;BME280;57735;56.264;43.898;2022-09-28T15:41:52;99618.28;;;6.52;83.92
70323;BME280;57735;56.264;43.898;2022-09-28T15:44:35;99632.63;;;6.49;83.83
70323;BME280;57735;56.264;43.898;2022-09-28T15:47:15;99633.63;;;6.48;84.05
70323;BME280;57735;56.264;43.898;2022-09-28T15:50:19;99625.97;;;6.45;83.85
70323;BME280;57735;56.264;43.898;2022-09-28T15:52:59;99617.03;;;6.46;84.35
70323;BME280;57735;56.264;43.898;2022-09-28T15:55:38;99614.41;;;6.46;84.00
70323;BME280;57735;56.264;43.898;2022-09-28T16:00:49;99623.16;;;6.47;84.15
70323;BME280;57735;56.264;43.898;2022-09-28T16:03:27;99632.09;;;6.46;83.78
70323;BME280;57735;56.264;43.898;2022-09-28T16:08:42;99618.03;;;6.45;84.00
70323;BME280;57735;56.264;43.898;2022-09-28T16:11:23;99632.09;;;6.46;83.91
70323;BME280;57735;56.264;43.898;2022-09-28T16:14:15;99624.00;;;6.47;84.21
70323;BME280;57735;56.264;43.898;2022-09-28T16:16:49;99626.50;;;6.49;84.24
70323;BME280;57735;56.264;43.898;2022-09-28T16:21:57;99620.09;;;6.51;83.83
70323;BME280;57735;56.264;43.898;2022-09-28T16:24:35;99631.66;;;6.50;83.60
70323;BME280;57735;56.264;43.898;2022-09-28T16:27:25;99630.00;;;6.49;83.63
70323;BME280;57735;56.264;43.898;2022-09-28T16:32:49;99628.31;;;6.48;83.62
70323;BME280;57735;56.264;43.898;2022-09-28T16:35:30;99632.50;;;6.51;83.67
70323;BME280;57735;56.264;43.898;2022-09-28T16:40:46;99638.91;;;6.48;83.34
70323;BME280;57735;56.264;43.898;2022-09-28T16:43:26;99640.19;;;6.44;83.40
70323;BME280;57735;56.264;43.898;2022-09-28T16:46:15;99637.66;;;6.43;83.73
70323;BME280;57735;56.264;43.898;2022-09-28T16:48:49;99638.66;;;6.42;83.73